QFA1205 NVVV-NZAA
Flight info
| Callsign | QFA1205 |
|---|---|
| Flight time | N/A |
| Altitude | 41000 |
| Route | EMTEN1 BIGSY DCT ELSAX R599 DUGAN |
| Aircraft | A332/H-SDE3GHIJ2J3J5M1RVWXY/LB2D1 |
Departure
| Time | 2026-04-30 20:12 |
|---|---|
| Airport | Bauerfield International Airport (NVVV) |
Arrival
| Time | N/A |
|---|---|
| Airport | Auckland International Airport (NZAA) |
| Time | Latitude | Longitude | Altitude | Speed | Heading |
|---|---|---|---|---|---|
| 2026-04-30 19:42 | -17.70105 | 168.31976 | 64 ft | 0 kts | 253° |
| 2026-04-30 20:01 | -17.70103 | 168.31982 | 66 ft | 2 kts | 251° |
| 2026-04-30 20:02 | -17.70094 | 168.32010 | 67 ft | 2 kts | 251° |
| 2026-04-30 20:03 | -17.70088 | 168.32031 | 63 ft | 2 kts | 253° |
| 2026-04-30 20:03 | -17.70083 | 168.32047 | 63 ft | 2 kts | 264° |
| 2026-04-30 20:03 | -17.70084 | 168.32058 | 63 ft | 0 kts | 297° |
| 2026-04-30 20:06 | -17.70082 | 168.32055 | 63 ft | 1 kts | 297° |
| 2026-04-30 20:07 | -17.70073 | 168.32037 | 63 ft | 6 kts | 297° |
| 2026-04-30 20:07 | -17.70045 | 168.31975 | 66 ft | 12 kts | 289° |
| 2026-04-30 20:07 | -17.69978 | 168.31933 | 71 ft | 8 kts | 25° |
| 2026-04-30 20:08 | -17.69910 | 168.31928 | 69 ft | 12 kts | 313° |
| 2026-04-30 20:08 | -17.69859 | 168.31839 | 82 ft | 17 kts | 301° |
| 2026-04-30 20:08 | -17.69801 | 168.31716 | 85 ft | 22 kts | 295° |
| 2026-04-30 20:08 | -17.69718 | 168.31550 | 69 ft | 29 kts | 298° |
| 2026-04-30 20:09 | -17.69615 | 168.31346 | 70 ft | 34 kts | 297° |
| 2026-04-30 20:09 | -17.69508 | 168.31132 | 68 ft | 33 kts | 298° |
| 2026-04-30 20:09 | -17.69255 | 168.30754 | 62 ft | 25 kts | 302° |
| 2026-04-30 20:10 | -17.69277 | 168.30678 | 57 ft | 0 kts | 148° |
| 2026-04-30 20:10 | -17.69279 | 168.30684 | 57 ft | 2 kts | 119° |
| 2026-04-30 20:10 | -17.69296 | 168.30716 | 61 ft | 0 kts | 119° |
| 2026-04-30 20:11 | -17.69302 | 168.30727 | 61 ft | 16 kts | 119° |
| 2026-04-30 20:11 | -17.69465 | 168.31050 | 69 ft | 82 kts | 117° |
| 2026-04-30 20:11 | -17.69821 | 168.31755 | 86 ft | 135 kts | 118° |
| 2026-04-30 20:12 | -17.70848 | 168.33776 | 873 ft | 165 kts | 118° |
| 2026-04-30 20:12 | -17.71400 | 168.34855 | 1409 ft | 170 kts | 118° |
| 2026-04-30 20:12 | -17.71972 | 168.35973 | 1989 ft | 178 kts | 118° |
| 2026-04-30 20:13 | -17.72641 | 168.37072 | 2620 ft | 180 kts | 143° |
| 2026-04-30 20:13 | -17.73824 | 168.37294 | 3198 ft | 182 kts | 198° |
| 2026-04-30 20:13 | -17.75034 | 168.36604 | 3385 ft | 211 kts | 211° |
| 2026-04-30 20:13 | -17.76358 | 168.35770 | 3662 ft | 239 kts | 211° |
| 2026-04-30 20:14 | -17.77865 | 168.34819 | 4036 ft | 265 kts | 211° |
| 2026-04-30 20:14 | -17.78944 | 168.34137 | 4320 ft | 268 kts | 211° |
| 2026-04-30 20:14 | -17.81047 | 168.32806 | 4865 ft | 266 kts | 211° |
| 2026-04-30 20:14 | -17.82632 | 168.31802 | 5266 ft | 267 kts | 211° |
| 2026-04-30 20:15 | -17.84225 | 168.30792 | 5664 ft | 268 kts | 211° |
| 2026-04-30 20:15 | -17.85962 | 168.30155 | 6020 ft | 268 kts | 179° |
| 2026-04-30 20:15 | -17.87754 | 168.30673 | 6450 ft | 272 kts | 159° |
| 2026-04-30 20:15 | -17.89535 | 168.31391 | 7066 ft | 274 kts | 159° |
| 2026-04-30 20:16 | -17.91323 | 168.32110 | 7701 ft | 276 kts | 159° |
| 2026-04-30 20:16 | -17.93128 | 168.32836 | 8334 ft | 279 kts | 159° |
| 2026-04-30 20:16 | -17.94950 | 168.33569 | 8965 ft | 281 kts | 159° |
| 2026-04-30 20:16 | -17.96799 | 168.34277 | 9583 ft | 284 kts | 166° |
| 2026-04-30 20:17 | -17.98726 | 168.34776 | 10069 ft | 287 kts | 167° |
| 2026-04-30 20:17 | -18.00700 | 168.35280 | 10507 ft | 305 kts | 167° |
| 2026-04-30 20:17 | -18.02823 | 168.35821 | 11034 ft | 321 kts | 167° |
| 2026-04-30 20:17 | -18.05037 | 168.36384 | 11602 ft | 333 kts | 167° |
| 2026-04-30 20:18 | -18.07322 | 168.36963 | 12190 ft | 337 kts | 167° |
| 2026-04-30 20:18 | -18.09600 | 168.37540 | 12759 ft | 340 kts | 167° |
| 2026-04-30 20:18 | -18.11894 | 168.38120 | 13346 ft | 343 kts | 167° |
| 2026-04-30 20:18 | -18.14240 | 168.38713 | 13949 ft | 346 kts | 167° |
| 2026-04-30 20:19 | -18.16577 | 168.39303 | 14533 ft | 349 kts | 167° |
| 2026-04-30 20:19 | -18.18161 | 168.39702 | 14935 ft | 351 kts | 167° |